createdAt,value
2018-03-03T00:02:27.278Z,11.07
2018-03-03T00:04:55.580Z,11.63
2018-03-03T00:07:23.096Z,11.00
2018-03-03T00:09:51.406Z,10.40
2018-03-03T00:12:18.917Z,11.30
2018-03-03T00:14:46.452Z,11.70
2018-03-03T00:17:13.989Z,10.83
2018-03-03T00:19:41.519Z,10.83
2018-03-03T00:22:09.792Z,11.10
2018-03-03T00:24:38.188Z,12.27
2018-03-03T00:27:05.744Z,10.97
2018-03-03T00:29:33.276Z,12.23
2018-03-03T00:32:01.654Z,11.37
2018-03-03T00:34:29.957Z,10.60
2018-03-03T00:36:57.482Z,11.33
2018-03-03T00:39:25.801Z,11.07
2018-03-03T00:41:53.363Z,10.97
2018-03-03T00:44:20.904Z,11.63
2018-03-03T00:46:48.416Z,11.53
2018-03-03T00:49:15.948Z,10.37
2018-03-03T00:51:43.464Z,11.33
2018-03-03T00:54:11.875Z,11.70
2018-03-03T00:56:39.416Z,11.97
2018-03-03T00:59:06.954Z,11.53
2018-03-03T01:01:35.253Z,11.47
2018-03-03T01:04:02.790Z,12.77
2018-03-03T01:06:31.108Z,11.10
2018-03-03T01:08:58.640Z,11.77
2018-03-03T01:11:26.216Z,11.23
2018-03-03T01:13:53.749Z,10.63
2018-03-03T01:16:21.328Z,11.47
2018-03-03T01:18:48.840Z,11.57
2018-03-03T01:21:16.440Z,12.10
2018-03-03T01:23:43.948Z,11.50
2018-03-03T01:26:11.564Z,11.53
2018-03-03T01:28:39.080Z,11.20
2018-03-03T01:31:07.381Z,11.37
2018-03-03T01:33:34.896Z,11.60
2018-03-03T01:36:02.428Z,10.97
2018-03-03T01:38:29.965Z,11.73
2018-03-03T01:40:57.496Z,11.93
2018-03-03T01:43:25.803Z,11.27
2018-03-03T01:45:53.336Z,11.43
2018-03-03T01:48:21.616Z,11.83
2018-03-03T01:50:50.013Z,11.43
2018-03-03T01:53:17.537Z,11.47
2018-03-03T01:55:45.840Z,11.83
2018-03-03T01:58:13.361Z,11.97
2018-03-03T02:00:40.899Z,11.93
2018-03-03T02:03:08.425Z,11.43
2018-03-03T02:05:35.993Z,11.73
2018-03-03T02:08:03.569Z,11.57
2018-03-03T02:10:31.128Z,12.57
2018-03-03T02:13:04.012Z,12.43
2018-03-03T02:15:31.544Z,12.30
2018-03-03T02:17:59.051Z,11.83
2018-03-03T02:20:26.592Z,11.43
2018-03-03T02:22:54.102Z,11.70
2018-03-03T02:25:21.640Z,11.47
2018-03-03T02:27:49.969Z,11.63
2018-03-03T02:30:17.610Z,11.87
2018-03-03T02:32:45.165Z,12.17
2018-03-03T02:35:12.732Z,11.90
2018-03-03T02:37:40.283Z,11.83
2018-03-03T02:40:07.820Z,11.37
2018-03-03T02:45:07.987Z,12.43
2018-03-03T02:47:35.536Z,11.73
2018-03-03T02:50:03.103Z,12.13
2018-03-03T02:52:30.617Z,11.83
2018-03-03T02:54:58.220Z,12.43
2018-03-03T02:57:25.884Z,12.60
2018-03-03T02:59:53.412Z,12.33
2018-03-03T03:02:20.990Z,12.57
2018-03-03T03:04:48.539Z,12.77
2018-03-03T03:07:16.099Z,12.53
2018-03-03T03:09:43.645Z,12.97
2018-03-03T03:12:11.173Z,12.47
2018-03-03T03:14:38.781Z,12.70
2018-03-03T03:17:06.333Z,12.53
2018-03-03T03:19:34.001Z,12.37
2018-03-03T03:22:01.553Z,13.00
2018-03-03T03:24:29.064Z,13.00
2018-03-03T03:26:56.601Z,12.57
2018-03-03T03:29:24.124Z,12.67
2018-03-03T03:31:51.684Z,13.37
2018-03-03T03:34:19.249Z,13.17
2018-03-03T03:36:46.828Z,12.47
2018-03-03T03:39:14.345Z,13.33
2018-03-03T03:41:42.788Z,12.30
2018-03-03T03:44:10.313Z,13.97
2018-03-03T03:46:37.848Z,12.50
2018-03-03T03:49:05.412Z,12.37
2018-03-03T03:51:32.948Z,13.07
2018-03-03T03:54:01.253Z,12.33
2018-03-03T03:56:28.794Z,13.27
2018-03-03T03:58:57.076Z,13.63
2018-03-03T04:01:24.620Z,13.43
2018-03-03T04:03:52.902Z,12.80
2018-03-03T04:06:20.433Z,14.37
2018-03-03T04:08:47.957Z,12.57
2018-03-03T04:11:15.489Z,12.87
2018-03-03T04:13:43.064Z,13.70
2018-03-03T04:16:10.591Z,12.57
2018-03-03T04:18:38.883Z,12.97
2018-03-03T04:21:06.448Z,12.93
2018-03-03T04:23:34.005Z,12.83
2018-03-03T04:26:01.540Z,13.10
2018-03-03T04:28:29.821Z,12.50
2018-03-03T04:30:57.367Z,14.00
2018-03-03T04:33:25.650Z,13.57
2018-03-03T04:35:53.944Z,12.70
2018-03-03T04:38:21.463Z,12.97
2018-03-03T04:40:49.073Z,13.47
2018-03-03T04:43:16.632Z,13.40
2018-03-03T04:45:44.186Z,13.20
2018-03-03T04:48:11.705Z,13.37
2018-03-03T04:50:40.026Z,13.37
2018-03-03T04:53:07.542Z,12.97
2018-03-03T04:55:35.836Z,13.70
2018-03-03T04:58:03.352Z,13.47
2018-03-03T05:00:36.553Z,13.83
2018-03-03T05:03:23.970Z,13.20
2018-03-03T05:05:55.463Z,14.03
2018-03-03T05:08:37.858Z,12.47
2018-03-03T05:11:18.905Z,12.40
2018-03-03T05:13:48.349Z,13.27
2018-03-03T05:16:21.529Z,14.37
2018-03-03T05:18:54.823Z,13.37
2018-03-03T05:21:38.029Z,12.13
2018-03-03T05:24:12.158Z,13.97
2018-03-03T05:40:16.271Z,13.07
2018-03-03T05:42:49.556Z,12.80
2018-03-03T05:45:24.632Z,14.03
2018-03-03T05:47:57.985Z,13.57
2018-03-03T05:50:31.177Z,14.27
2018-03-03T05:53:04.507Z,14.87
2018-03-03T05:55:37.818Z,13.50
2018-03-03T05:58:17.193Z,14.37
2018-03-03T06:14:07.025Z,14.70
2018-03-03T06:16:35.305Z,14.13
2018-03-03T06:19:02.839Z,14.90
2018-03-03T06:21:30.360Z,14.13
2018-03-03T06:23:57.943Z,14.90
2018-03-03T06:26:25.458Z,13.97
2018-03-03T06:28:53.761Z,14.80
2018-03-03T06:31:21.298Z,14.67
2018-03-03T06:33:49.593Z,14.37
2018-03-03T06:36:17.129Z,14.47
2018-03-03T06:38:44.704Z,14.57
2018-03-03T06:41:12.269Z,14.43
2018-03-03T06:43:39.850Z,15.40
2018-03-03T06:46:07.372Z,15.57
2018-03-03T06:48:34.948Z,14.83
2018-03-03T06:51:02.509Z,15.03
2018-03-03T06:53:30.033Z,15.50
2018-03-03T06:55:58.336Z,14.90
2018-03-03T06:58:25.869Z,14.47
2018-03-03T07:00:54.149Z,14.60
2018-03-03T07:03:22.449Z,15.27
2018-03-03T07:05:50.017Z,15.10
2018-03-03T07:08:17.566Z,15.77
2018-03-03T07:10:45.116Z,15.20
2018-03-03T07:13:12.644Z,15.13
2018-03-03T07:15:40.920Z,15.67
2018-03-03T07:18:08.461Z,14.80
2018-03-03T07:20:35.976Z,15.40
2018-03-03T07:23:03.534Z,14.87
2018-03-03T07:25:31.049Z,14.83
2018-03-03T07:27:59.354Z,15.80
2018-03-03T07:30:26.929Z,15.50
2018-03-03T07:32:54.459Z,15.20
2018-03-03T07:35:22.764Z,16.27
2018-03-03T07:37:51.097Z,15.57
2018-03-03T07:40:18.667Z,14.83
2018-03-03T07:42:46.939Z,15.60
2018-03-03T07:45:15.241Z,17.40
2018-03-03T07:47:42.941Z,16.07
2018-03-03T07:50:11.388Z,16.27
2018-03-03T07:52:39.253Z,15.57
2018-03-03T07:55:06.812Z,15.67
2018-03-03T07:57:34.363Z,15.80
2018-03-03T08:00:01.896Z,16.53
2018-03-03T08:02:30.177Z,15.63
2018-03-03T08:04:58.480Z,15.37
2018-03-03T08:07:25.998Z,17.87
2018-03-03T08:09:54.313Z,15.30
2018-03-03T08:12:21.881Z,15.63
2018-03-03T08:14:49.425Z,15.67
2018-03-03T08:17:16.941Z,15.17
2018-03-03T08:19:44.482Z,15.83
2018-03-03T08:22:12.096Z,15.97
2018-03-03T08:24:39.629Z,15.13
2018-03-03T08:27:07.930Z,15.63
2018-03-03T08:29:35.461Z,15.87
2018-03-03T08:32:03.773Z,16.63
2018-03-03T08:34:31.306Z,17.40
2018-03-03T08:36:59.604Z,16.93
2018-03-03T08:39:27.170Z,17.17
2018-03-03T08:41:54.727Z,16.87
2018-03-03T08:44:22.388Z,17.63
2018-03-03T08:46:49.937Z,17.37
2018-03-03T08:49:17.483Z,18.10
2018-03-03T08:51:45.064Z,18.53
2018-03-03T08:54:12.613Z,19.67
2018-03-03T08:56:40.181Z,17.70
2018-03-03T08:59:07.708Z,19.27
2018-03-03T09:01:35.990Z,19.23
2018-03-03T09:04:04.397Z,18.30
2018-03-03T09:06:31.955Z,18.30
2018-03-03T09:08:59.479Z,18.40
2018-03-03T09:11:27.785Z,19.27
2018-03-03T09:13:55.332Z,18.87
2018-03-03T09:16:22.846Z,18.00
2018-03-03T09:18:50.374Z,17.70
2018-03-03T09:21:17.914Z,19.07
2018-03-03T09:23:45.449Z,18.50
2018-03-03T09:26:13.753Z,19.33
2018-03-03T09:28:41.288Z,18.10
2018-03-03T09:31:08.870Z,18.37
2018-03-03T09:33:36.417Z,19.20
2018-03-03T09:36:04.038Z,18.03
2018-03-03T09:38:31.545Z,19.77
2018-03-03T09:40:59.075Z,19.97
2018-03-03T09:43:27.404Z,18.83
2018-03-03T09:45:54.941Z,19.43
2018-03-03T09:48:22.454Z,18.30
2018-03-03T09:50:50.765Z,19.13
2018-03-03T09:53:18.272Z,18.73
2018-03-03T09:55:45.886Z,19.53
2018-03-03T09:58:13.441Z,19.37
2018-03-03T10:00:40.985Z,18.93
2018-03-03T10:03:08.502Z,19.07
2018-03-03T10:05:36.104Z,18.73
2018-03-03T10:08:03.679Z,18.77
2018-03-03T10:10:31.213Z,19.60
2018-03-03T10:12:58.737Z,18.53
2018-03-03T10:15:26.349Z,20.80
2018-03-03T10:17:53.903Z,18.47
2018-03-03T10:20:21.447Z,19.37
2018-03-03T10:22:49.772Z,18.00
2018-03-03T10:25:17.405Z,19.53
2018-03-03T10:27:45.019Z,20.00
2018-03-03T10:30:12.626Z,18.80
2018-03-03T10:32:40.180Z,19.73
2018-03-03T10:35:07.748Z,18.37
2018-03-03T10:37:35.292Z,18.93
2018-03-03T10:40:02.828Z,19.47
2018-03-03T10:42:31.109Z,19.33
2018-03-03T10:44:59.512Z,18.27
2018-03-03T10:47:27.025Z,19.50
2018-03-03T10:49:54.632Z,19.40
2018-03-03T10:52:22.167Z,19.20
2018-03-03T10:54:50.560Z,19.90
2018-03-03T10:57:18.073Z,19.67
2018-03-03T10:59:45.608Z,18.83
2018-03-03T11:02:13.141Z,19.13
2018-03-03T11:04:40.708Z,18.30
2018-03-03T11:07:08.212Z,19.33
2018-03-03T11:09:35.748Z,20.43
2018-03-03T11:12:03.265Z,21.13
2018-03-03T11:14:30.797Z,21.13
2018-03-03T11:16:59.125Z,19.73
2018-03-03T11:19:26.759Z,19.03
2018-03-03T11:21:54.268Z,18.63
2018-03-03T11:24:22.008Z,20.13
2018-03-03T11:26:49.516Z,20.00
2018-03-03T11:29:17.821Z,19.23
2018-03-03T11:31:45.385Z,20.10
2018-03-03T11:34:12.913Z,20.43
2018-03-03T11:36:41.214Z,19.60
2018-03-03T11:39:08.729Z,19.20
2018-03-03T11:41:36.314Z,20.77
2018-03-03T11:44:03.832Z,20.43
2018-03-03T11:46:31.377Z,19.53
2018-03-03T11:48:58.905Z,20.67
2018-03-03T11:51:26.457Z,19.67
2018-03-03T11:53:53.969Z,20.77
2018-03-03T11:56:21.610Z,19.90
2018-03-03T11:58:49.121Z,19.17
2018-03-03T12:01:16.687Z,20.10
2018-03-03T12:03:44.200Z,20.07
2018-03-03T12:06:11.816Z,20.87
2018-03-03T12:08:39.336Z,20.03
2018-03-03T12:11:07.632Z,20.77
2018-03-03T12:13:35.212Z,20.40
2018-03-03T12:16:02.766Z,20.10
2018-03-03T12:18:30.326Z,20.83
2018-03-03T12:20:57.857Z,19.93
2018-03-03T12:23:26.166Z,20.43
2018-03-03T12:25:53.717Z,20.33
2018-03-03T12:28:21.244Z,20.00
2018-03-03T12:30:49.667Z,21.67
2018-03-03T12:33:17.203Z,20.40
2018-03-03T12:35:44.820Z,20.90
2018-03-03T12:38:12.304Z,19.53
2018-03-03T12:40:40.644Z,19.93
2018-03-03T12:43:08.262Z,19.87
2018-03-03T12:45:35.795Z,21.60
2018-03-03T12:48:04.093Z,20.60
2018-03-03T12:50:31.660Z,20.67
2018-03-03T12:52:59.222Z,21.13
2018-03-03T12:55:26.734Z,20.33
2018-03-03T12:57:55.094Z,21.10
2018-03-03T13:00:22.609Z,21.60
2018-03-03T13:02:50.164Z,19.97
2018-03-03T13:05:17.701Z,20.73
2018-03-03T13:07:45.232Z,22.10
2018-03-03T13:10:12.847Z,20.10
2018-03-03T13:12:40.461Z,21.60
2018-03-03T13:15:08.061Z,20.77
2018-03-03T13:17:35.572Z,20.63
2018-03-03T13:20:03.151Z,20.03
2018-03-03T13:22:31.533Z,20.67
2018-03-03T13:24:59.857Z,20.10
2018-03-03T13:27:27.398Z,19.57
2018-03-03T13:29:54.949Z,19.40
2018-03-03T13:32:22.524Z,20.27
2018-03-03T13:34:50.052Z,20.47
2018-03-03T13:37:17.580Z,20.77
2018-03-03T13:39:45.097Z,19.73
2018-03-03T13:42:12.620Z,20.63
2018-03-03T13:44:40.908Z,19.87
2018-03-03T13:47:08.432Z,20.37
2018-03-03T13:49:36.033Z,20.40
2018-03-03T13:52:03.578Z,20.63
2018-03-03T13:54:31.092Z,19.77
2018-03-03T13:56:58.643Z,20.33
2018-03-03T13:59:26.166Z,20.67
2018-03-03T14:01:53.725Z,20.40
2018-03-03T14:04:21.285Z,20.60
2018-03-03T14:06:48.862Z,21.27
2018-03-03T14:09:16.357Z,21.00
2018-03-03T14:11:44.656Z,20.30
2018-03-03T14:14:12.176Z,20.03
2018-03-03T14:16:39.796Z,20.03
2018-03-03T14:19:07.358Z,19.87
2018-03-03T14:21:34.905Z,20.63
2018-03-03T14:24:02.421Z,20.00
2018-03-03T14:26:29.962Z,19.90
2018-03-03T14:28:57.582Z,20.50
2018-03-03T14:31:25.158Z,20.50
2018-03-03T14:33:52.693Z,21.60
2018-03-03T14:36:20.228Z,20.97
2018-03-03T14:38:48.534Z,21.00
2018-03-03T14:41:16.093Z,20.63
2018-03-03T14:43:43.621Z,21.40
2018-03-03T14:46:11.918Z,21.10
2018-03-03T14:48:39.428Z,21.83
2018-03-03T14:51:08.473Z,21.17
2018-03-03T14:53:35.985Z,20.70
2018-03-03T14:56:03.672Z,21.20
2018-03-03T14:58:31.963Z,21.93
2018-03-03T15:00:59.492Z,21.60
2018-03-03T15:03:27.773Z,21.40
2018-03-03T15:05:56.153Z,20.93
2018-03-03T15:08:24.466Z,21.23
2018-03-03T15:10:52.020Z,21.50
2018-03-03T15:13:19.533Z,21.07
2018-03-03T15:15:47.061Z,21.43
2018-03-03T15:18:14.575Z,21.67
2018-03-03T15:20:42.100Z,20.60
2018-03-03T15:23:09.612Z,21.37
2018-03-03T15:25:37.120Z,20.60
2018-03-03T15:28:04.717Z,22.13
2018-03-03T15:30:32.317Z,21.83
2018-03-03T15:32:59.871Z,21.63
2018-03-03T15:35:27.401Z,21.63
2018-03-03T15:37:54.958Z,21.10
2018-03-03T15:40:22.472Z,21.23
2018-03-03T15:42:50.068Z,20.43
2018-03-03T15:45:17.581Z,21.33
2018-03-03T15:47:45.117Z,21.03
2018-03-03T15:50:12.633Z,21.03
2018-03-03T15:52:40.164Z,20.83
2018-03-03T15:55:07.769Z,22.17
2018-03-03T15:57:35.307Z,21.50
2018-03-03T16:00:02.821Z,21.67
2018-03-03T16:02:30.434Z,21.60
2018-03-03T16:04:58.002Z,21.57
2018-03-03T16:07:25.534Z,21.40
2018-03-03T16:09:53.813Z,20.73
2018-03-03T16:12:22.225Z,21.20
2018-03-03T16:14:49.769Z,20.27
2018-03-03T16:17:17.301Z,21.77
2018-03-03T16:19:45.608Z,19.77
2018-03-03T16:22:13.142Z,20.37
2018-03-03T16:24:40.721Z,18.87
2018-03-03T16:27:08.286Z,19.10
2018-03-03T16:29:35.832Z,18.53
2018-03-03T16:32:03.409Z,18.90
2018-03-03T16:34:30.954Z,18.80
2018-03-03T16:36:58.501Z,19.97
2018-03-03T16:39:26.021Z,18.13
2018-03-03T16:41:53.573Z,19.17
2018-03-03T16:44:21.193Z,19.07
2018-03-03T16:46:48.719Z,60.17
2018-03-03T16:49:17.044Z,53.87
2018-03-03T16:51:44.577Z,35.47
2018-03-03T16:54:12.120Z,31.33
2018-03-03T16:56:40.563Z,33.63
2018-03-03T16:59:08.080Z,30.67
2018-03-03T17:01:35.611Z,28.33
2018-03-03T17:04:03.896Z,28.07
2018-03-03T17:06:31.473Z,27.73
2018-03-03T17:08:59.045Z,27.00
2018-03-03T17:11:26.585Z,26.43
2018-03-03T17:13:54.152Z,24.27
2018-03-03T17:16:21.709Z,24.47
2018-03-03T17:18:49.272Z,24.93
2018-03-03T17:21:16.789Z,23.07
2018-03-03T17:23:45.089Z,23.77
2018-03-03T17:26:12.645Z,22.77
2018-03-03T17:28:40.177Z,21.03
2018-03-03T17:31:08.452Z,23.00
2018-03-03T17:33:36.739Z,21.83
2018-03-03T17:36:05.036Z,21.37
2018-03-03T17:38:32.601Z,22.43
2018-03-03T17:41:00.120Z,20.90
2018-03-03T17:43:28.430Z,21.03
2018-03-03T17:45:55.942Z,20.23
2018-03-03T17:48:23.552Z,21.07
2018-03-03T17:50:51.073Z,19.40
2018-03-03T17:53:19.391Z,20.40
2018-03-03T17:55:46.950Z,19.90
2018-03-03T17:58:14.484Z,19.33
2018-03-03T18:00:42.018Z,19.77
2018-03-03T18:03:09.553Z,19.07
2018-03-03T18:05:37.060Z,18.27
2018-03-03T18:08:04.620Z,16.70
2018-03-03T18:10:32.180Z,17.83
2018-03-03T18:12:59.753Z,16.70
2018-03-03T18:15:27.300Z,16.40
2018-03-03T18:17:54.840Z,16.97
2018-03-03T18:20:23.142Z,15.83
2018-03-03T18:22:50.702Z,15.77
2018-03-03T18:25:18.339Z,16.53
2018-03-03T18:27:46.856Z,16.37
2018-03-03T18:30:14.420Z,15.67
2018-03-03T18:32:41.949Z,16.03
2018-03-03T18:35:09.472Z,16.03
2018-03-03T18:37:37.080Z,17.17
2018-03-03T18:40:04.605Z,15.13
2018-03-03T18:42:33.014Z,14.77
2018-03-03T18:45:00.556Z,15.07
2018-03-03T18:47:28.120Z,14.93
2018-03-03T18:49:55.636Z,14.30
2018-03-03T18:52:23.245Z,14.80
2018-03-03T18:54:50.796Z,15.13
2018-03-03T18:57:18.401Z,14.63
2018-03-03T18:59:46.021Z,13.97
2018-03-03T19:02:13.565Z,14.10
2018-03-03T19:04:41.094Z,14.30
2018-03-03T19:07:08.752Z,13.93
2018-03-03T19:09:36.260Z,14.80
2018-03-03T19:12:03.793Z,15.13
2018-03-03T19:14:32.073Z,13.57
2018-03-03T19:17:00.365Z,14.40
2018-03-03T19:19:27.929Z,15.27
2018-03-03T19:21:55.445Z,15.17
2018-03-03T19:24:23.744Z,13.67
2018-03-03T19:26:51.273Z,13.53
2018-03-03T19:29:19.062Z,13.90
2018-03-03T19:31:46.404Z,13.60
2018-03-03T19:34:14.725Z,14.20
2018-03-03T19:36:42.243Z,13.97
2018-03-03T19:39:10.713Z,14.30
2018-03-03T19:41:38.245Z,14.20
2018-03-03T19:44:05.873Z,13.93
2018-03-03T19:46:33.385Z,13.40
2018-03-03T19:49:00.914Z,13.87
2018-03-03T19:51:28.443Z,12.83
2018-03-03T19:53:56.002Z,12.90
2018-03-03T19:56:23.521Z,13.63
2018-03-03T19:58:51.822Z,14.03
2018-03-03T20:01:19.337Z,13.10
2018-03-03T20:03:46.878Z,13.27
2018-03-03T20:06:14.390Z,13.40
2018-03-03T20:08:41.926Z,13.23
2018-03-03T20:11:10.204Z,13.83
2018-03-03T20:13:38.616Z,12.83
2018-03-03T20:16:06.236Z,13.83
2018-03-03T20:18:34.868Z,12.93
2018-03-03T20:21:02.577Z,12.60
2018-03-03T20:23:30.130Z,13.13
2018-03-03T20:25:59.490Z,13.10
2018-03-03T20:28:27.434Z,12.50
2018-03-03T20:30:54.980Z,12.40
2018-03-03T20:33:23.307Z,11.77
2018-03-03T20:35:50.829Z,12.47
2018-03-03T20:38:18.414Z,11.77
2018-03-03T20:40:45.931Z,12.60
2018-03-03T20:43:14.235Z,12.30
2018-03-03T20:45:41.792Z,11.33
2018-03-03T20:48:09.322Z,11.63
2018-03-03T20:50:37.637Z,12.80
2018-03-03T20:53:05.177Z,12.33
2018-03-03T20:55:32.693Z,11.63
2018-03-03T20:58:00.311Z,12.00
2018-03-03T21:00:27.860Z,11.53
2018-03-03T21:02:55.431Z,11.97
2018-03-03T21:05:22.925Z,12.30
2018-03-03T21:07:50.456Z,11.30
2018-03-03T21:10:17.965Z,11.70
2018-03-03T21:12:47.171Z,11.73
2018-03-03T21:15:15.470Z,11.87
2018-03-03T21:17:43.125Z,11.63
2018-03-03T21:20:10.690Z,11.27
2018-03-03T21:22:38.204Z,11.33
2018-03-03T21:25:06.500Z,11.57
2018-03-03T21:27:34.801Z,11.07
2018-03-03T21:30:02.462Z,11.60
2018-03-03T21:32:29.968Z,11.93
2018-03-03T21:34:57.611Z,12.07
2018-03-03T21:37:25.126Z,12.07
2018-03-03T21:39:52.657Z,12.23
2018-03-03T21:42:20.969Z,12.13
2018-03-03T21:44:48.505Z,12.17
2018-03-03T21:47:16.809Z,11.47
2018-03-03T21:49:44.365Z,11.50
2018-03-03T21:52:11.888Z,11.90
2018-03-03T21:54:40.200Z,11.43
2018-03-03T21:57:07.841Z,11.97
2018-03-03T21:59:35.373Z,11.27
2018-03-03T22:02:02.980Z,12.23
2018-03-03T22:04:31.353Z,11.50
2018-03-03T22:06:58.914Z,11.43
2018-03-03T22:09:26.489Z,11.33
2018-03-03T22:11:53.993Z,11.80
2018-03-03T22:14:22.289Z,12.00
2018-03-03T22:16:49.873Z,12.07
2018-03-03T22:19:17.413Z,11.57
2018-03-03T22:21:44.933Z,11.43
2018-03-03T22:24:12.456Z,10.93
2018-03-03T22:26:39.973Z,12.90
2018-03-03T22:29:08.270Z,11.53
2018-03-03T22:31:35.834Z,12.47
2018-03-03T22:34:03.371Z,12.17
2018-03-03T22:36:30.941Z,12.13
2018-03-03T22:38:58.473Z,11.93
2018-03-03T22:41:26.751Z,11.80
2018-03-03T22:43:55.049Z,10.60
2018-03-03T22:46:22.569Z,11.73
2018-03-03T22:48:50.164Z,12.03
2018-03-03T22:51:17.681Z,11.60
2018-03-03T22:53:45.214Z,12.13
2018-03-03T22:56:12.741Z,12.10
2018-03-03T22:58:40.278Z,12.00
2018-03-03T23:01:08.576Z,12.03
2018-03-03T23:03:36.110Z,11.80
2018-03-03T23:06:04.416Z,11.83
2018-03-03T23:08:31.974Z,11.97
2018-03-03T23:10:59.541Z,10.80
2018-03-03T23:13:27.077Z,10.90
2018-03-03T23:15:54.666Z,11.93
2018-03-03T23:18:22.201Z,12.53
2018-03-03T23:20:49.724Z,11.10
2018-03-03T23:23:17.437Z,11.43
2018-03-03T23:25:44.979Z,11.80
2018-03-03T23:28:12.510Z,11.77
2018-03-03T23:30:40.817Z,11.53
2018-03-03T23:33:08.384Z,12.20
2018-03-03T23:35:35.941Z,12.30
2018-03-03T23:38:03.445Z,12.27
2018-03-03T23:40:30.973Z,11.67
2018-03-03T23:42:58.507Z,11.57
2018-03-03T23:45:26.060Z,12.27
2018-03-03T23:47:53.569Z,12.17
2018-03-03T23:50:21.186Z,11.77
2018-03-03T23:52:48.755Z,11.40
2018-03-03T23:55:16.291Z,11.97
2018-03-03T23:57:43.869Z,11.77
